Time;durP1;ratioP1;P1;durP2;ratioP2;P2;SDS_P1;SDS_P2;PMS_P1;PMS_P2;Temp;Humidity;BMP_temperature;BMP_pressure;BME280_temperature;BME280_humidity;BME280_pressure;Samples;Min_cycle;Max_cycle;Signal;HPM_P1;HPM_P2
2023/03/11 00:00:57;;;;;;;;;;;;;;;5.31;69.32;100639.34;5017949;28;19917;-68
2023/03/11 00:03:23;;;;;;;;;;;;;;;5.31;69.53;100637.47;5013007;28;20016;-69
2023/03/11 00:05:48;;;;;;;;;;;;;;;5.29;69.50;100636.88;5031095;28;19928;-68
2023/03/11 00:08:15;;;;;;;;;;;;;;;5.29;69.24;100638.72;5031745;28;19917;-68
2023/03/11 00:10:41;;;;;;;;;;;;;;;5.28;69.21;100637.09;5014476;28;19944;-68
2023/03/11 00:13:08;;;;;;;;;;;;;;;5.26;69.51;100633.78;5013101;28;19960;-68
2023/03/11 00:15:34;;;;;;;;;;;;;;;5.25;69.33;100645.53;5019002;28;19917;-67
2023/03/11 00:17:59;;;;;;;;;;;;;;;5.25;69.39;100648.22;5013024;28;19924;-67
2023/03/11 00:20:26;;;;;;;;;;;;;;;5.23;69.34;100653.78;5028641;28;19979;-68
2023/03/11 00:22:52;;;;;;;;;;;;;;;5.21;69.25;100651.28;5012740;28;19964;-68
2023/03/11 00:25:18;;;;;;;;;;;;;;;5.20;69.13;100649.66;5018274;28;19976;-68
2023/03/11 00:27:43;;;;;;;;;;;;;;;5.19;69.08;100663.25;5023167;28;19917;-68
2023/03/11 00:30:10;;;;;;;;;;;;;;;5.18;69.18;100664.28;5026257;28;20364;-67
2023/03/11 00:32:35;;;;;;;;;;;;;;;5.16;69.04;100669.84;5022558;28;19925;-67
2023/03/11 00:35:00;;;;;;;;;;;;;;;5.17;69.28;100676.03;5023478;28;20318;-68
2023/03/11 00:37:25;;;;;;;;;;;;;;;5.15;69.15;100675.44;5029680;28;19921;-68
2023/03/11 00:39:51;;;;;;;;;;;;;;;5.12;69.24;100679.34;5016608;28;20377;-68
2023/03/11 00:42:16;;;;;;;;;;;;;;;5.12;68.99;100686.56;5020839;28;19924;-68
2023/03/11 00:44:41;;;;;;;;;;;;;;;5.09;68.97;100679.75;5031599;28;20011;-68
2023/03/11 00:47:08;;;;;;;;;;;;;;;5.07;69.40;100687.19;5021612;28;20317;-69
2023/03/11 00:49:33;;;;;;;;;;;;;;;5.07;69.37;100692.53;5015140;28;19925;-67
2023/03/11 00:51:58;;;;;;;;;;;;;;;5.06;69.24;100684.69;5028239;28;20377;-68
2023/03/11 00:54:24;;;;;;;;;;;;;;;5.05;68.97;100686.56;5012743;28;20349;-71
2023/03/11 00:56:49;;;;;;;;;;;;;;;5.05;69.07;100689.22;5016038;28;20268;-68
2023/03/11 00:59:14;;;;;;;;;;;;;;;5.03;68.92;100699.31;5027136;28;19967;-68
2023/03/11 01:01:39;;;;;;;;;;;;;;;5.02;68.91;100700.38;5025028;28;19925;-69
2023/03/11 01:04:05;;;;;;;;;;;;;;;5.01;68.98;100701.38;5023062;28;20297;-68
2023/03/11 01:06:30;;;;;;;;;;;;;;;4.99;68.94;100701.59;5012022;28;19963;-67
2023/03/11 01:08:55;;;;;;;;;;;;;;;4.98;69.29;100707.97;5028815;28;19944;-67
2023/03/11 01:11:21;;;;;;;;;;;;;;;4.97;69.30;100714.34;5027322;28;20285;-68
2023/03/11 01:13:46;;;;;;;;;;;;;;;4.96;69.17;100712.72;5011734;28;19913;-68
2023/03/11 01:16:11;;;;;;;;;;;;;;;4.95;68.93;100711.06;5022265;28;19917;-68
2023/03/11 01:18:36;;;;;;;;;;;;;;;4.94;69.36;100712.09;5030365;28;19921;-69
2023/03/11 01:21:02;;;;;;;;;;;;;;;4.93;69.08;100717.66;5023559;28;19967;-69
2023/03/11 01:23:27;;;;;;;;;;;;;;;4.92;69.13;100718.69;5016048;28;19918;-71
2023/03/11 01:25:52;;;;;;;;;;;;;;;4.91;68.96;100715.19;5012040;28;20268;-68
2023/03/11 01:28:18;;;;;;;;;;;;;;;4.90;69.01;100718.88;5016357;28;19967;-68
2023/03/11 01:30:43;;;;;;;;;;;;;;;4.90;69.06;100720.75;5012368;28;20388;-68
2023/03/11 01:33:13;;;;;;;;;;;;;;;4.87;68.74;100719.31;5012371;28;19914;-68
2023/03/11 01:35:38;;;;;;;;;;;;;;;4.86;68.89;100714.16;5011574;28;20274;-68
2023/03/11 01:38:04;;;;;;;;;;;;;;;4.85;68.97;100717.88;5012285;28;20362;-70
2023/03/11 01:40:37;;;;;;;;;;;;;;;4.84;68.96;100719.72;5023762;28;19913;-72
2023/03/11 01:43:03;;;;;;;;;;;;;;;4.83;69.02;100720.72;5026966;28;19994;-69
2023/03/11 01:45:40;;;;;;;;;;;;;;;4.82;68.75;100726.31;5031159;28;19913;-73
2023/03/11 01:48:09;;;;;;;;;;;;;;;4.81;68.68;100732.66;5031381;28;19917;-68
2023/03/11 01:50:37;;;;;;;;;;;;;;;4.80;69.02;100736.38;5028301;28;19939;-68
2023/03/11 01:53:03;;;;;;;;;;;;;;;4.78;69.00;100732.03;5020930;28;20344;-68
2023/03/11 01:55:29;;;;;;;;;;;;;;;4.77;68.98;100726.91;5012048;28;19936;-68
2023/03/11 01:57:55;;;;;;;;;;;;;;;4.75;68.96;100715.59;5011658;28;19950;-68
2023/03/11 02:00:21;;;;;;;;;;;;;;;4.74;68.94;100717.44;5015600;28;19971;-69
2023/03/11 02:02:46;;;;;;;;;;;;;;;4.73;68.93;100717.63;5019352;28;19917;-69
2023/03/11 02:05:11;;;;;;;;;;;;;;;4.72;68.85;100716.00;5019837;28;19967;-68
2023/03/11 02:07:38;;;;;;;;;;;;;;;4.72;68.99;100714.16;5011308;28;19917;-68
2023/03/11 02:10:06;;;;;;;;;;;;;;;4.72;68.83;100718.69;5018226;28;19917;-67
2023/03/11 02:12:33;;;;;;;;;;;;;;;4.71;68.77;100714.34;5020905;28;20304;-70
2023/03/11 02:14:59;;;;;;;;;;;;;;;4.69;68.91;100717.25;5011891;28;19919;-67
2023/03/11 02:17:25;;;;;;;;;;;;;;;4.68;68.91;100720.09;5011739;28;20000;-67
2023/03/11 02:20:11;;;;;;;;;;;;;;;4.67;68.74;100721.97;5011231;28;20344;-67
2023/03/11 02:22:37;;;;;;;;;;;;;;;4.65;68.67;100729.38;5014228;28;20265;-68
2023/03/11 02:25:08;;;;;;;;;;;;;;;4.66;68.59;100730.19;5015988;28;19918;-67
2023/03/11 02:27:36;;;;;;;;;;;;;;;4.65;68.93;100733.91;5011407;28;19913;-71
2023/03/11 02:30:02;;;;;;;;;;;;;;;4.64;68.67;100732.25;5030769;28;19924;-68
2023/03/11 02:32:27;;;;;;;;;;;;;;;4.63;68.70;100722.56;5014246;28;19921;-67
2023/03/11 02:34:53;;;;;;;;;;;;;;;4.61;68.71;100721.94;5012633;28;20096;-67
2023/03/11 02:37:18;;;;;;;;;;;;;;;4.60;68.67;100725.66;5015179;28;20262;-68
2023/03/11 02:39:45;;;;;;;;;;;;;;;4.59;68.79;100732.88;5021524;28;20000;-69
2023/03/11 02:42:16;;;;;;;;;;;;;;;4.58;68.86;100725.03;5035037;28;19967;-68
2023/03/11 02:44:43;;;;;;;;;;;;;;;4.56;68.77;100725.22;5015135;28;19917;-68
2023/03/11 02:47:08;;;;;;;;;;;;;;;4.55;68.84;100724.41;5014663;28;20289;-68
2023/03/11 02:49:35;;;;;;;;;;;;;;;4.55;68.98;100720.91;5019755;28;19923;-68
2023/03/11 02:52:00;;;;;;;;;;;;;;;4.54;68.74;100721.97;5028463;28;20008;-68
2023/03/11 02:54:26;;;;;;;;;;;;;;;4.53;68.76;100717.63;5014838;28;20011;-69
2023/03/11 02:56:51;;;;;;;;;;;;;;;4.52;68.77;100724.00;5014311;28;19917;-68
2023/03/11 02:59:16;;;;;;;;;;;;;;;4.50;68.73;100718.84;5014524;28;19933;-67
2023/03/11 03:01:42;;;;;;;;;;;;;;;4.50;68.78;100732.22;5029193;28;20104;-68
2023/03/11 03:04:07;;;;;;;;;;;;;;;4.50;68.75;100731.41;5014610;28;19936;-68
2023/03/11 03:06:32;;;;;;;;;;;;;;;4.48;68.80;100734.28;5014637;28;20293;-68
2023/03/11 03:08:57;;;;;;;;;;;;;;;4.48;68.60;100736.13;5013786;28;20281;-68
2023/03/11 03:11:23;;;;;;;;;;;;;;;4.46;68.52;100746.19;5027068;28;19924;-68
2023/03/11 03:13:48;;;;;;;;;;;;;;;4.45;68.45;100731.19;5025666;28;19927;-68
2023/03/11 03:16:13;;;;;;;;;;;;;;;4.45;68.62;100744.56;5032436;28;19924;-68
2023/03/11 03:18:38;;;;;;;;;;;;;;;4.42;68.61;100748.47;5031728;28;19917;-71
2023/03/11 03:21:04;;;;;;;;;;;;;;;4.43;68.89;100757.31;5034184;28;20255;-68
2023/03/11 03:23:33;;;;;;;;;;;;;;;4.42;68.52;100755.66;5032305;28;19966;-68
2023/03/11 03:25:59;;;;;;;;;;;;;;;4.40;68.63;100763.06;5015237;28;20055;-68
2023/03/11 03:28:24;;;;;;;;;;;;;;;4.40;68.91;100766.56;5025200;28;20004;-68
2023/03/11 03:30:49;;;;;;;;;;;;;;;4.37;68.84;100769.63;5032978;28;19917;-68
2023/03/11 03:33:14;;;;;;;;;;;;;;;4.37;68.88;100777.66;5030116;28;20023;-68
2023/03/11 03:35:42;;;;;;;;;;;;;;;4.36;68.73;100778.69;5017547;28;19965;-68
2023/03/11 03:38:07;;;;;;;;;;;;;;;4.36;68.72;100784.06;5013738;28;19920;-68
2023/03/11 03:40:32;;;;;;;;;;;;;;;4.35;68.57;100777.03;5013693;28;19913;-68
2023/03/11 03:42:57;;;;;;;;;;;;;;;4.34;68.73;100786.09;5026819;28;19995;-68
2023/03/11 03:45:23;;;;;;;;;;;;;;;4.32;68.59;100786.28;5026099;28;19959;-68
2023/03/11 03:47:48;;;;;;;;;;;;;;;4.31;68.51;100789.19;5012991;28;20382;-68
2023/03/11 03:50:13;;;;;;;;;;;;;;;4.31;68.52;100797.19;5022946;28;20012;-68
2023/03/11 03:52:39;;;;;;;;;;;;;;;4.29;68.53;100800.06;5030118;28;19921;-68
2023/03/11 03:55:04;;;;;;;;;;;;;;;4.28;68.62;100795.75;5025719;28;19918;-67
2023/03/11 03:57:30;;;;;;;;;;;;;;;4.28;68.68;100800.25;5013668;28;20015;-68
2023/03/11 03:59:55;;;;;;;;;;;;;;;4.28;68.81;100802.91;5011800;28;20007;-68
2023/03/11 04:02:20;;;;;;;;;;;;;;;4.25;68.41;100806.81;5016806;28;20347;-68
2023/03/11 04:04:46;;;;;;;;;;;;;;;4.24;68.68;100802.50;5026875;28;19917;-67
2023/03/11 04:07:11;;;;;;;;;;;;;;;4.23;68.56;100800.84;5031507;28;19913;-68
2023/03/11 04:09:41;;;;;;;;;;;;;;;4.23;68.68;100798.16;5032583;28;20290;-68
2023/03/11 04:12:07;;;;;;;;;;;;;;;4.22;68.77;100795.72;5032309;28;19921;-69
2023/03/11 04:14:32;;;;;;;;;;;;;;;4.21;68.44;100804.75;5024844;28;19968;-68
2023/03/11 04:16:57;;;;;;;;;;;;;;;4.19;68.67;100804.97;5019952;28;19917;-68
2023/03/11 04:19:23;;;;;;;;;;;;;;;4.19;68.41;100804.13;5014020;28;20380;-68
2023/03/11 04:21:50;;;;;;;;;;;;;;;4.16;68.66;100802.69;5012889;28;19923;-69
2023/03/11 04:24:15;;;;;;;;;;;;;;;4.16;68.80;100809.84;5013292;28;19924;-68
2023/03/11 04:26:41;;;;;;;;;;;;;;;4.15;68.58;100811.72;5017782;28;19917;-68
2023/03/11 04:29:06;;;;;;;;;;;;;;;4.14;68.49;100818.09;5024221;28;19976;-68
2023/03/11 04:31:31;;;;;;;;;;;;;;;4.12;68.65;100807.59;5011905;28;20388;-68
2023/03/11 04:33:56;;;;;;;;;;;;;;;4.11;68.68;100802.47;5012218;28;19917;-68
2023/03/11 04:36:22;;;;;;;;;;;;;;;4.11;68.60;100805.13;5012943;28;19918;-68
2023/03/11 04:38:47;;;;;;;;;;;;;;;4.10;68.55;100809.63;5013977;28;19956;-69
2023/03/11 04:41:12;;;;;;;;;;;;;;;4.09;68.67;100809.84;5012869;28;20366;-68
2023/03/11 04:43:37;;;;;;;;;;;;;;;4.08;68.50;100813.53;5011560;28;19913;-69
2023/03/11 04:46:03;;;;;;;;;;;;;;;4.07;68.78;100818.06;5012102;28;20236;-68
2023/03/11 04:48:28;;;;;;;;;;;;;;;4.06;68.47;100821.75;5023158;28;20336;-68
2023/03/11 04:50:54;;;;;;;;;;;;;;;4.05;68.62;100813.94;5013800;28;19921;-68
2023/03/11 04:53:19;;;;;;;;;;;;;;;4.03;68.63;100811.47;5012875;28;19914;-68
2023/03/11 04:55:46;;;;;;;;;;;;;;;4.03;68.46;100813.28;5012420;28;20384;-71
2023/03/11 04:58:12;;;;;;;;;;;;;;;4.02;68.69;100809.81;5018516;28;19917;-68
2023/03/11 05:00:37;;;;;;;;;;;;;;;4.02;68.46;100817.00;5017361;28;20285;-68
2023/03/11 05:03:02;;;;;;;;;;;;;;;4.00;68.60;100816.38;5011904;28;19917;-68
2023/03/11 05:05:27;;;;;;;;;;;;;;;4.00;68.74;100819.03;5012085;28;19922;-69
2023/03/11 05:07:52;;;;;;;;;;;;;;;3.98;68.55;100821.94;5012575;28;20250;-68
2023/03/11 05:10:21;;;;;;;;;;;;;;;3.98;68.50;100827.28;5022169;28;19929;-68
2023/03/11 05:12:46;;;;;;;;;;;;;;;3.97;68.40;100830.94;5012590;28;20004;-69
2023/03/11 05:15:12;;;;;;;;;;;;;;;3.97;68.61;100824.78;5011548;28;20326;-68
2023/03/11 05:17:37;;;;;;;;;;;;;;;3.96;68.70;100833.84;5012094;28;19924;-68
2023/03/11 05:20:06;;;;;;;;;;;;;;;3.95;68.46;100834.84;5026525;28;20373;-70
2023/03/11 05:22:34;;;;;;;;;;;;;;;3.93;68.55;100835.06;5026418;28;19928;-68
2023/03/11 05:24:59;;;;;;;;;;;;;;;3.92;68.36;100840.59;5011604;28;20285;-68
2023/03/11 05:27:24;;;;;;;;;;;;;;;3.91;68.48;100845.13;5012695;28;19917;-69
2023/03/11 05:29:50;;;;;;;;;;;;;;;3.91;68.56;100850.47;5021170;28;20084;-72
2023/03/11 05:32:15;;;;;;;;;;;;;;;3.89;68.77;100847.97;5012414;28;19928;-69
2023/03/11 05:34:41;;;;;;;;;;;;;;;3.88;68.52;100846.34;5012414;28;20327;-68
2023/03/11 05:37:06;;;;;;;;;;;;;;;3.88;68.57;100851.69;5011194;28;19921;-69
2023/03/11 05:39:32;;;;;;;;;;;;;;;3.86;68.50;100856.38;5013542;28;20051;-69
2023/03/11 05:41:57;;;;;;;;;;;;;;;3.85;68.30;100851.22;5011461;28;20405;-69
2023/03/11 05:44:22;;;;;;;;;;;;;;;3.84;68.69;100855.75;5011863;28;20004;-69
2023/03/11 05:46:47;;;;;;;;;;;;;;;3.84;68.36;100857.59;5011733;28;19979;-69
2023/03/11 05:49:13;;;;;;;;;;;;;;;3.83;68.55;100853.25;5011364;28;19913;-69
2023/03/11 05:51:39;;;;;;;;;;;;;;;3.82;68.63;100859.63;5026803;28;20293;-68
2023/03/11 05:54:10;;;;;;;;;;;;;;;3.80;68.44;100859.00;5011607;28;20012;-68
2023/03/11 05:56:35;;;;;;;;;;;;;;;3.79;68.67;100860.84;5011941;28;19917;-69
2023/03/11 05:59:00;;;;;;;;;;;;;;;3.79;68.63;100862.72;5011152;28;19929;-68
2023/03/11 06:01:26;;;;;;;;;;;;;;;3.78;68.35;100864.56;5023962;28;19921;-68
2023/03/11 06:03:51;;;;;;;;;;;;;;;3.78;68.49;100861.03;5012137;28;19917;-71
2023/03/11 06:06:16;;;;;;;;;;;;;;;3.76;68.59;100868.44;5011248;28;19953;-68
2023/03/11 06:08:48;;;;;;;;;;;;;;;3.76;68.27;100877.28;5011656;28;19925;-69
2023/03/11 06:11:13;;;;;;;;;;;;;;;3.75;68.46;100878.28;5022603;28;20435;-68
2023/03/11 06:13:38;;;;;;;;;;;;;;;3.74;68.59;100881.16;5020248;28;20004;-68
2023/03/11 06:16:04;;;;;;;;;;;;;;;3.73;68.62;100883.03;5018844;28;19917;-69
2023/03/11 06:18:29;;;;;;;;;;;;;;;3.72;68.34;100889.38;5015503;28;19952;-68
2023/03/11 06:20:57;;;;;;;;;;;;;;;3.72;68.28;100894.72;5016850;28;20354;-72
2023/03/11 06:23:22;;;;;;;;;;;;;;;3.70;68.36;100894.06;5031992;28;19924;-68
2023/03/11 06:25:58;;;;;;;;;;;;;;;3.69;68.50;100898.59;5033677;28;19913;-68
2023/03/11 06:28:24;;;;;;;;;;;;;;;3.68;68.41;100901.47;5032952;28;19959;-68
2023/03/11 06:30:49;;;;;;;;;;;;;;;3.68;68.33;100912.16;5034780;28;19917;-69
2023/03/11 06:33:14;;;;;;;;;;;;;;;3.67;68.43;100908.63;5033655;28;19940;-69
2023/03/11 06:35:40;;;;;;;;;;;;;;;3.67;68.25;100921.19;5025380;28;19921;-69
2023/03/11 06:38:05;;;;;;;;;;;;;;;3.66;68.27;100919.53;5015305;28;19917;-69
2023/03/11 06:40:30;;;;;;;;;;;;;;;3.65;68.29;100923.22;5015129;28;20393;-69
2023/03/11 06:42:56;;;;;;;;;;;;;;;3.64;68.46;100918.91;5015475;28;19921;-72
2023/03/11 06:45:21;;;;;;;;;;;;;;;3.63;68.50;100934.09;5032898;28;20058;-69
2023/03/11 06:47:46;;;;;;;;;;;;;;;3.63;68.45;100930.63;5033662;28;19914;-69
2023/03/11 06:50:11;;;;;;;;;;;;;;;3.63;68.48;100933.28;5033472;28;19917;-69
2023/03/11 06:52:37;;;;;;;;;;;;;;;3.61;68.44;100938.81;5032475;28;20027;-70
2023/03/11 06:55:02;;;;;;;;;;;;;;;3.60;68.47;100939.84;5021328;28;19926;-70
2023/03/11 06:57:29;;;;;;;;;;;;;;;3.60;68.34;100950.53;5013607;28;20285;-69
2023/03/11 06:59:55;;;;;;;;;;;;;;;3.59;68.26;100954.19;5014728;28;19917;-70
2023/03/11 07:02:20;;;;;;;;;;;;;;;3.59;68.61;100956.03;5014258;28;19979;-69
2023/03/11 07:04:47;;;;;;;;;;;;;;;3.58;68.63;100954.38;5016757;28;19928;-69
2023/03/11 07:07:13;;;;;;;;;;;;;;;3.58;68.43;100962.38;5014191;28;19924;-70
2023/03/11 07:09:38;;;;;;;;;;;;;;;3.56;68.44;100956.44;5014465;28;19929;-69
2023/03/11 07:12:03;;;;;;;;;;;;;;;3.56;68.55;100959.94;5014138;28;19917;-70
2023/03/11 07:14:29;;;;;;;;;;;;;;;3.55;68.41;100960.09;5019268;28;19927;-69
2023/03/11 07:16:54;;;;;;;;;;;;;;;3.55;68.76;100963.59;5032856;28;19967;-69
2023/03/11 07:19:19;;;;;;;;;;;;;;;3.55;68.50;100968.13;5020801;28;19921;-69
2023/03/11 07:21:44;;;;;;;;;;;;;;;3.54;68.83;100956.63;5012891;28;19917;-69
2023/03/11 07:24:11;;;;;;;;;;;;;;;3.55;68.48;100974.28;5016728;28;19963;-69
2023/03/11 07:26:36;;;;;;;;;;;;;;;3.54;68.42;100969.97;5032044;28;20304;-71
2023/03/11 07:29:02;;;;;;;;;;;;;;;3.54;68.73;100974.50;5030221;28;19929;-70
2023/03/11 07:31:28;;;;;;;;;;;;;;;3.54;68.71;100975.31;5023169;28;19917;-70
2023/03/11 07:33:55;;;;;;;;;;;;;;;3.53;68.41;100970.16;5014021;28;19917;-70
2023/03/11 07:36:21;;;;;;;;;;;;;;;3.52;68.44;100969.31;5016222;28;20389;-69
2023/03/11 07:38:47;;;;;;;;;;;;;;;3.53;68.66;100972.81;5019856;28;19921;-68
2023/03/11 07:41:13;;;;;;;;;;;;;;;3.52;68.55;100979.19;5028215;28;20427;-68
2023/03/11 07:43:39;;;;;;;;;;;;;;;3.51;68.26;100983.72;5013956;28;19913;-69
2023/03/11 07:46:07;;;;;;;;;;;;;;;3.52;68.28;100987.19;5018741;28;19925;-69
2023/03/11 07:48:33;;;;;;;;;;;;;;;3.51;68.61;100991.72;5017421;28;19925;-69
2023/03/11 07:51:00;;;;;;;;;;;;;;;3.51;68.65;100988.22;5014758;28;19972;-69
2023/03/11 07:53:25;;;;;;;;;;;;;;;3.51;68.30;100993.56;5013595;28;20404;-69
2023/03/11 07:55:54;;;;;;;;;;;;;;;3.49;68.69;100991.09;5017178;28;19948;-69
2023/03/11 07:58:19;;;;;;;;;;;;;;;3.49;68.51;100998.28;5019752;28;19914;-69
2023/03/11 08:00:45;;;;;;;;;;;;;;;3.49;68.40;101006.28;5023381;28;19975;-69
2023/03/11 08:03:10;;;;;;;;;;;;;;;3.47;68.69;100999.28;5011843;28;19917;-70
2023/03/11 08:05:35;;;;;;;;;;;;;;;3.46;68.63;101005.63;5013556;28;19925;-70
2023/03/11 08:08:00;;;;;;;;;;;;;;;3.46;68.26;100999.47;5031475;28;20003;-70
2023/03/11 08:10:26;;;;;;;;;;;;;;;3.46;68.60;101002.16;5020607;28;19936;-70
2023/03/11 08:12:51;;;;;;;;;;;;;;;3.46;68.65;101008.31;5022628;28;20070;-70
2023/03/11 08:15:16;;;;;;;;;;;;;;;3.43;68.43;101003.34;5014140;28;19924;-70
2023/03/11 08:17:41;;;;;;;;;;;;;;;3.42;68.42;101012.38;5022399;28;20004;-69
2023/03/11 08:20:08;;;;;;;;;;;;;;;3.42;68.37;101016.88;5022703;28;19913;-70
2023/03/11 08:22:33;;;;;;;;;;;;;;;3.43;68.51;101019.38;5032278;28;19921;-69
2023/03/11 08:24:58;;;;;;;;;;;;;;;3.41;68.67;101007.22;5019055;28;19925;-68
2023/03/11 08:27:26;;;;;;;;;;;;;;;3.42;68.58;101015.03;5014194;28;19925;-69
2023/03/11 08:29:52;;;;;;;;;;;;;;;3.42;68.54;101015.03;5023316;28;19923;-69
2023/03/11 08:32:17;;;;;;;;;;;;;;;3.43;68.62;101016.69;5030443;28;19917;-69
2023/03/11 08:34:42;;;;;;;;;;;;;;;3.44;68.67;101029.03;5031762;28;20361;-69
2023/03/11 08:37:08;;;;;;;;;;;;;;;3.44;68.62;101026.34;5023466;28;19922;-72
2023/03/11 08:39:33;;;;;;;;;;;;;;;3.43;68.69;101024.72;5012608;28;19924;-69
2023/03/11 08:41:58;;;;;;;;;;;;;;;3.45;68.66;101033.38;5021551;28;20316;-70
2023/03/11 08:44:24;;;;;;;;;;;;;;;3.45;68.64;101035.19;5030116;28;19928;-71
2023/03/11 08:46:49;;;;;;;;;;;;;;;3.45;68.67;101038.72;5016285;28;20353;-70
2023/03/11 08:49:14;;;;;;;;;;;;;;;3.44;68.88;101039.72;5012019;28;19917;-69
2023/03/11 08:51:39;;;;;;;;;;;;;;;3.45;68.86;101048.53;4995433;28;19917;-69
2023/03/11 08:54:05;;;;;;;;;;;;;;;3.44;68.65;101047.72;5023263;28;19921;-69
2023/03/11 08:56:30;;;;;;;;;;;;;;;3.43;68.60;101043.41;5011004;28;19917;-68
2023/03/11 08:58:55;;;;;;;;;;;;;;;3.45;68.76;101048.53;5012824;28;19928;-69
2023/03/11 09:01:22;;;;;;;;;;;;;;;3.45;68.92;101040.53;5011828;28;19914;-69
2023/03/11 09:03:47;;;;;;;;;;;;;;;3.46;68.66;101042.22;5020131;28;19975;-70
2023/03/11 09:06:14;;;;;;;;;;;;;;;3.47;68.55;101046.53;5028862;28;19917;-69
2023/03/11 09:08:39;;;;;;;;;;;;;;;3.46;68.57;101048.38;5012712;28;19913;-69
2023/03/11 09:11:05;;;;;;;;;;;;;;;3.46;68.55;101051.03;5012557;28;19917;-69
2023/03/11 09:13:30;;;;;;;;;;;;;;;3.47;68.69;101050.00;5013842;28;19913;-70
2023/03/11 09:15:55;;;;;;;;;;;;;;;3.46;68.54;101064.41;5027502;28;19944;-69
2023/03/11 09:18:20;;;;;;;;;;;;;;;3.47;68.48;101068.69;5010712;28;19924;-69
2023/03/11 09:20:46;;;;;;;;;;;;;;;3.49;68.30;101065.84;5030410;28;20023;-70
2023/03/11 09:23:13;;;;;;;;;;;;;;;3.50;68.35;101062.16;5031357;28;20388;-74
2023/03/11 09:25:38;;;;;;;;;;;;;;;3.50;68.11;101062.16;5030877;28;19917;-69
2023/03/11 09:28:04;;;;;;;;;;;;;;;3.52;68.09;101067.31;5016694;28;19959;-69
2023/03/11 09:30:30;;;;;;;;;;;;;;;3.51;68.36;101063.84;5012134;28;19913;-69
2023/03/11 09:32:55;;;;;;;;;;;;;;;3.53;68.15;101071.63;5011979;28;19917;-68
2023/03/11 09:35:20;;;;;;;;;;;;;;;3.54;68.49;101062.63;5021577;28;20001;-70
2023/03/11 09:37:45;;;;;;;;;;;;;;;3.55;68.38;101069.63;5021232;28;20336;-69
2023/03/11 09:40:15;;;;;;;;;;;;;;;3.55;67.81;101065.09;5012394;28;19956;-69
2023/03/11 09:42:40;;;;;;;;;;;;;;;3.56;68.12;101066.75;5030436;28;20262;-70
2023/03/11 09:45:12;;;;;;;;;;;;;;;3.56;68.07;101069.44;5034174;28;20565;-69
2023/03/11 09:47:55;;;;;;;;;;;;;;;3.58;68.33;101064.75;5019957;28;19918;-69
2023/03/11 09:50:23;;;;;;;;;;;;;;;3.58;68.44;101070.09;5015557;28;20004;-68
2023/03/11 09:53:27;;;;;;;;;;;;;;;3.59;68.23;101069.06;5015741;28;20344;-70
2023/03/11 09:55:54;;;;;;;;;;;;;;;3.61;68.09;101074.22;5024586;28;19964;-68
2023/03/11 09:58:28;;;;;;;;;;;;;;;3.62;68.08;101070.53;5022425;28;20007;-68
2023/03/11 10:00:54;;;;;;;;;;;;;;;3.62;67.82;101068.66;5023552;28;19913;-66
2023/03/11 10:03:28;;;;;;;;;;;;;;;3.63;67.00;101065.00;5014245;28;19923;-69
2023/03/11 10:05:57;;;;;;;;;;;;;;;3.64;66.92;101063.16;5021722;28;19917;-68
2023/03/11 10:08:27;;;;;;;;;;;;;;;3.65;66.92;101067.47;5034571;28;19917;-68
2023/03/11 10:11:02;;;;;;;;;;;;;;;3.66;66.25;101069.13;5031313;28;19917;-70
2023/03/11 10:13:55;;;;;;;;;;;;;;;3.65;66.31;101071.00;5015967;28;19913;-69
2023/03/11 10:16:26;;;;;;;;;;;;;;;3.65;66.38;101073.66;5021943;28;19917;-68
2023/03/11 10:19:27;;;;;;;;;;;;;;;3.66;66.65;101082.50;5032061;28;19923;-69
2023/03/11 10:22:21;;;;;;;;;;;;;;;3.66;66.82;101082.50;4993706;28;19920;-70
2023/03/11 10:24:56;;;;;;;;;;;;;;;3.67;66.21;101092.16;4999694;28;20403;-70
2023/03/11 10:27:27;;;;;;;;;;;;;;;3.67;66.27;101103.66;5031949;28;19921;-69
2023/03/11 10:30:05;;;;;;;;;;;;;;;3.69;65.82;101092.78;5015835;28;20012;-69
2023/03/11 10:32:54;;;;;;;;;;;;;;;3.68;65.91;101089.31;5015219;28;20022;-68
2023/03/11 10:35:35;;;;;;;;;;;;;;;3.70;66.17;101089.09;5011735;28;19914;-68
2023/03/11 10:38:04;;;;;;;;;;;;;;;3.71;66.48;101098.78;5019505;28;19917;-68
2023/03/11 10:40:35;;;;;;;;;;;;;;;3.74;66.24;101094.91;5025139;28;20004;-68
2023/03/11 10:43:12;;;;;;;;;;;;;;;3.74;66.38;101092.22;5015253;28;19964;-68
2023/03/11 10:45:40;;;;;;;;;;;;;;;3.76;66.20;101087.53;5014616;28;20015;-68
2023/03/11 10:48:12;;;;;;;;;;;;;;;3.78;66.35;101093.50;5022377;28;19925;-67
2023/03/11 10:50:42;;;;;;;;;;;;;;;3.78;66.22;101091.69;5014898;28;19932;-67
2023/03/11 10:53:09;;;;;;;;;;;;;;;3.82;66.29;101089.44;5015500;28;20000;-69
2023/03/11 10:55:34;;;;;;;;;;;;;;;3.82;66.56;101095.59;5020450;28;19917;-69
2023/03/11 10:58:03;;;;;;;;;;;;;;;3.83;66.76;101099.09;5029753;28;19916;-69
2023/03/11 11:00:30;;;;;;;;;;;;;;;3.84;66.68;101090.09;5024874;28;20027;-65
2023/03/11 11:04:45;;;;;;;12.50;11.13;;;;;;;3.87;66.53;101089.69;5101670;27;20420;-68
2023/03/11 11:07:34;;;;;;;11.43;10.82;;;;;;;3.91;66.57;101090.97;5088488;28;20489;-68
2023/03/11 11:10:20;;;;;;;10.57;9.48;;;;;;;3.95;66.16;101083.41;5118299;28;20015;-70
2023/03/11 11:12:55;;;;;;;23.00;12.77;;;;;;;3.99;66.27;101074.81;5089650;27;20378;-70
2023/03/11 11:15:23;;;;;;;17.95;16.42;;;;;;;4.02;65.73;101085.13;5088454;28;20032;-69
2023/03/11 11:17:49;;;;;;;17.30;15.50;;;;;;;4.05;66.11;101083.91;5088892;28;20082;-69
2023/03/11 11:20:18;;;;;;;14.70;13.90;;;;;;;4.08;66.06;101087.03;5109146;28;20036;-68
2023/03/11 11:22:56;;;;;;;14.05;12.48;;;;;;;4.09;65.73;101086.00;5091595;28;20040;-69
2023/03/11 11:25:26;;;;;;;13.27;12.48;;;;;;;4.11;65.64;101088.50;5088681;28;20029;-73
2023/03/11 11:27:54;;;;;;;13.07;12.07;;;;;;;4.12;65.60;101090.97;5088636;28;20028;-69
2023/03/11 11:30:20;;;;;;;14.30;13.27;;;;;;;4.15;65.51;101086.25;5105847;28;20035;-69
2023/03/11 11:32:46;;;;;;;258.60;170.52;;;;;;;4.16;65.84;101096.78;5088002;28;20036;-70
2023/03/11 11:35:14;;;;;;;25.98;19.95;;;;;;;4.17;65.87;101094.94;5088760;28;20380;-68
2023/03/11 11:37:45;;;;;;;18.50;16.13;;;;;;;4.19;65.72;101099.06;5088141;28;20473;-68
2023/03/11 11:40:13;;;;;;;21.88;14.88;;;;;;;4.22;65.92;101090.66;5109447;28;20024;-67
2023/03/11 11:42:47;;;;;;;16.33;14.77;;;;;;;4.23;65.86;101089.63;5121369;28;20046;-68
2023/03/11 11:45:28;;;;;;;14.02;13.23;;;;;;;4.27;65.93;101087.41;5106204;28;20032;-72
2023/03/11 11:47:57;;;;;;;13.45;12.65;;;;;;;4.33;65.63;101078.59;5105462;28;20024;-70
2023/03/11 11:50:30;;;;;;;13.35;12.55;;;;;;;4.39;66.06;101090.38;5106227;28;20387;-68
2023/03/11 11:53:04;;;;;;;14.45;13.48;;;;;;;4.44;66.01;101086.09;5113242;28;20028;-68
2023/03/11 11:55:34;;;;;;;13.55;12.65;;;;;;;4.45;65.89;101087.75;5097661;28;20028;-69
2023/03/11 11:57:59;;;;;;;14.40;13.50;;;;;;;4.48;65.81;101092.69;5099693;28;20118;-68
2023/03/11 12:01:10;;;;;;;12.82;11.93;;;;;;;4.51;65.60;101088.81;5103985;28;20165;-69
2023/03/11 12:03:51;;;;;;;15.77;14.57;;;;;;;4.53;65.52;101081.44;5102319;28;20499;-68
2023/03/11 12:06:30;;;;;;;14.88;13.88;;;;;;;4.54;65.21;101088.44;5106687;28;20027;-69
2023/03/11 12:09:33;;;;;;;13.10;12.18;;;;;;;4.55;65.74;101098.13;5103344;28;20028;-74
2023/03/11 12:12:26;;;;;;;12.48;11.57;;;;;;;4.57;64.87;101085.38;5135460;27;20039;-80
2023/03/11 12:15:15;;;;;;;11.95;11.25;;;;;;;4.62;64.96;101092.81;5096424;28;20036;-77
2023/03/11 12:17:45;;;;;;;14.25;12.93;;;;;;;4.66;64.35;101097.59;5082576;28;20052;-81
2023/03/11 12:20:21;;;;;;;13.02;12.15;;;;;;;4.70;64.08;101096.16;5084182;28;20058;-79
2023/03/11 12:23:10;;;;;;;15.00;13.88;;;;;;;4.74;63.59;101088.59;5091535;28;20024;-78
2023/03/11 12:25:44;;;;;;;14.93;13.82;;;;;;;4.78;63.12;101073.78;5082596;28;20036;-83
2023/03/11 12:28:36;;;;;;;15.57;14.23;;;;;;;4.83;62.99;101089.25;5092892;28;20114;-72
2023/03/11 12:31:07;;;;;;;12.82;12.07;;;;;;;4.87;63.18;101087.84;5089829;28;20040;-68
2023/03/11 12:33:38;;;;;;;13.30;12.43;;;;;;;4.90;63.30;101087.44;5073980;28;20025;-70
2023/03/11 12:36:05;;;;;;;12.18;11.52;;;;;;;4.89;62.96;101081.28;5081989;28;20571;-68
2023/03/11 12:38:45;;;;;;;14.63;13.68;;;;;;;4.91;63.15;101086.41;5081141;28;20366;-68
2023/03/11 12:41:13;;;;;;;12.57;11.88;;;;;;;4.91;63.23;101089.09;5074307;28;20476;-71